createdAt,value
2023-01-12T00:02:21.221Z,3.66
2023-01-12T00:04:53.888Z,3.69
2023-01-12T00:07:26.034Z,3.72
2023-01-12T00:09:58.219Z,3.75
2023-01-12T00:12:32.617Z,3.78
2023-01-12T00:15:04.627Z,3.79
2023-01-12T00:17:36.759Z,3.82
2023-01-12T00:20:10.860Z,3.86
2023-01-12T00:22:43.468Z,3.86
2023-01-12T00:25:15.422Z,3.88
2023-01-12T00:27:51.031Z,3.90
2023-01-12T00:30:23.461Z,3.93
2023-01-12T00:32:55.596Z,3.98
2023-01-12T00:35:27.576Z,4.00
2023-01-12T00:38:01.069Z,4.02
2023-01-12T00:40:33.019Z,4.06
2023-01-12T00:43:22.855Z,4.06
2023-01-12T00:45:54.826Z,4.07
2023-01-12T00:48:27.038Z,4.08
2023-01-12T00:50:59.326Z,4.09
2023-01-12T00:53:31.878Z,4.12
2023-01-12T00:56:06.592Z,4.18
2023-01-12T00:58:38.548Z,4.16
2023-01-12T01:01:11.447Z,4.17
2023-01-12T01:03:43.819Z,4.21
2023-01-12T01:06:15.901Z,4.22
2023-01-12T01:08:48.470Z,4.22
2023-01-12T01:11:21.115Z,4.24
2023-01-12T01:13:55.596Z,4.25
2023-01-12T01:16:27.738Z,4.26
2023-01-12T01:19:00.388Z,4.27
2023-01-12T01:21:32.908Z,4.26
2023-01-12T01:24:05.378Z,4.24
2023-01-12T01:26:37.737Z,4.25
2023-01-12T01:29:10.107Z,4.26
2023-01-12T01:31:42.228Z,4.25
2023-01-12T01:34:18.755Z,4.25
2023-01-12T01:37:04.138Z,4.22
2023-01-12T01:39:36.341Z,4.23
2023-01-12T01:42:28.588Z,4.22
2023-01-12T01:45:03.387Z,4.21
2023-01-12T01:47:41.455Z,4.22
2023-01-12T01:50:21.612Z,4.23
2023-01-12T01:52:58.977Z,4.21
2023-01-12T01:55:35.170Z,4.20
2023-01-12T01:58:13.286Z,4.16
2023-01-12T02:00:48.327Z,4.11
2023-01-12T02:03:21.438Z,4.11
2023-01-12T02:05:55.347Z,4.12
2023-01-12T02:08:32.257Z,4.11
2023-01-12T02:11:25.356Z,4.12
2023-01-12T02:14:14.839Z,4.12
2023-01-12T02:16:59.807Z,4.11
2023-01-12T02:19:57.227Z,4.09
2023-01-12T02:22:54.698Z,4.06
2023-01-12T02:25:59.186Z,4.04
2023-01-12T02:28:57.954Z,4.08
2023-01-12T02:31:49.657Z,4.10
2023-01-12T02:34:34.239Z,4.13
2023-01-12T02:37:15.880Z,4.14
2023-01-12T02:39:59.999Z,4.16
2023-01-12T02:42:47.945Z,4.19
2023-01-12T02:45:43.174Z,4.16
2023-01-12T02:48:22.677Z,4.21
2023-01-12T02:51:01.324Z,4.20
2023-01-12T02:53:38.818Z,4.23
2023-01-12T02:56:12.145Z,4.29
2023-01-12T02:58:49.625Z,4.32
2023-01-12T03:01:23.991Z,4.36
2023-01-12T03:04:01.191Z,4.40
2023-01-12T03:06:45.802Z,4.44
2023-01-12T03:09:20.510Z,4.46
2023-01-12T03:12:02.137Z,4.47
2023-01-12T03:14:37.975Z,4.47
2023-01-12T03:17:13.998Z,4.46
2023-01-12T03:19:47.399Z,4.48
2023-01-12T03:22:20.411Z,4.51
2023-01-12T03:24:56.633Z,4.53
2023-01-12T03:27:33.821Z,4.55
2023-01-12T03:30:13.477Z,4.56
2023-01-12T03:32:45.880Z,4.57
2023-01-12T03:35:21.292Z,4.60
2023-01-12T03:37:59.608Z,4.60
2023-01-12T03:40:39.149Z,4.66
2023-01-12T03:43:18.668Z,4.66
2023-01-12T03:45:55.906Z,4.70
2023-01-12T03:48:32.976Z,4.71
2023-01-12T03:51:12.149Z,4.71
2023-01-12T03:53:46.967Z,4.74
2023-01-12T03:56:21.817Z,4.77
2023-01-12T03:58:54.787Z,4.80
2023-01-12T04:01:27.309Z,4.80
2023-01-12T04:04:00.184Z,4.80
2023-01-12T04:06:32.757Z,4.82
2023-01-12T04:09:04.770Z,4.84
2023-01-12T04:11:54.187Z,4.84
2023-01-12T04:14:26.251Z,4.85
2023-01-12T04:16:58.287Z,4.86
2023-01-12T04:19:30.948Z,4.87
2023-01-12T04:22:20.716Z,4.89
2023-01-12T04:24:54.781Z,4.91
2023-01-12T04:27:26.838Z,4.93
2023-01-12T04:29:59.681Z,4.96
2023-01-12T04:32:31.880Z,4.96
2023-01-12T04:35:04.689Z,4.99
2023-01-12T04:37:36.966Z,4.98
2023-01-12T04:40:12.391Z,4.96
2023-01-12T04:43:07.484Z,4.95
2023-01-12T04:45:44.096Z,4.98
2023-01-12T04:48:17.122Z,5.00
2023-01-12T04:50:50.737Z,5.02
2023-01-12T04:53:24.843Z,5.04
2023-01-12T04:55:57.992Z,5.04
2023-01-12T04:58:29.967Z,5.03
2023-01-12T05:01:08.998Z,5.05
2023-01-12T05:03:41.856Z,5.04
2023-01-12T05:06:13.886Z,5.05
2023-01-12T05:09:03.470Z,5.07
2023-01-12T05:11:35.751Z,5.06
2023-01-12T05:14:08.238Z,5.05
2023-01-12T05:16:40.535Z,5.06
2023-01-12T05:19:13.464Z,5.08
2023-01-12T05:21:45.653Z,5.08
2023-01-12T05:24:37.882Z,5.11
2023-01-12T05:27:10.089Z,5.11
2023-01-12T05:29:42.320Z,5.09
2023-01-12T05:32:14.731Z,5.09
2023-01-12T05:34:46.741Z,5.10
2023-01-12T05:37:19.113Z,5.10
2023-01-12T05:39:51.637Z,5.12
2023-01-12T05:42:41.023Z,5.12
2023-01-12T05:45:14.727Z,5.11
2023-01-12T05:47:47.016Z,5.12
2023-01-12T05:50:19.599Z,5.16
2023-01-12T05:53:12.149Z,5.14
2023-01-12T05:55:44.764Z,5.18
2023-01-12T05:58:16.988Z,5.17
2023-01-12T06:00:49.977Z,5.16
2023-01-12T06:03:22.343Z,5.18
2023-01-12T06:05:58.732Z,5.20
2023-01-12T06:08:30.932Z,5.20
2023-01-12T06:11:06.926Z,5.22
2023-01-12T06:13:56.430Z,5.22
2023-01-12T06:16:30.024Z,5.22
2023-01-12T06:19:00.448Z,5.24
2023-01-12T06:21:35.373Z,5.22
2023-01-12T06:24:08.197Z,5.25
2023-01-12T06:26:40.281Z,5.25
2023-01-12T06:29:13.948Z,5.24
2023-01-12T06:31:44.245Z,5.24
2023-01-12T06:34:16.539Z,5.22
2023-01-12T06:36:49.928Z,5.26
2023-01-12T06:39:22.447Z,5.27
2023-01-12T06:42:14.382Z,5.30
2023-01-12T06:44:48.704Z,5.31
2023-01-12T06:47:21.617Z,5.32
2023-01-12T06:49:53.647Z,5.30
2023-01-12T06:52:27.785Z,5.30
2023-01-12T06:55:00.019Z,5.32
2023-01-12T06:57:32.229Z,5.32
2023-01-12T07:00:05.333Z,5.32
2023-01-12T07:02:37.708Z,5.26
2023-01-12T07:05:10.656Z,5.26
2023-01-12T07:07:45.432Z,5.23
2023-01-12T07:10:18.195Z,5.24
2023-01-12T07:12:50.496Z,5.27
2023-01-12T07:15:22.829Z,5.27
2023-01-12T07:18:00.164Z,5.27
2023-01-12T07:20:32.688Z,5.24
2023-01-12T07:23:04.617Z,5.24
2023-01-12T07:25:36.972Z,5.23
2023-01-12T07:28:10.379Z,5.29
2023-01-12T07:30:42.691Z,5.28
2023-01-12T07:33:18.527Z,5.29
2023-01-12T07:35:50.860Z,5.36
2023-01-12T07:38:22.869Z,5.40
2023-01-12T07:40:55.104Z,5.43
2023-01-12T07:43:27.389Z,5.44
2023-01-12T07:46:01.294Z,5.44
2023-01-12T07:48:33.545Z,5.45
2023-01-12T07:51:05.924Z,5.46
2023-01-12T07:53:38.110Z,5.49
2023-01-12T07:56:13.799Z,5.54
2023-01-12T07:58:48.353Z,5.55
2023-01-12T08:01:20.876Z,5.56
2023-01-12T08:03:53.143Z,5.56
2023-01-12T08:06:25.076Z,5.55
2023-01-12T08:08:57.709Z,5.58
2023-01-12T08:11:29.754Z,5.61
2023-01-12T08:14:02.329Z,5.63
2023-01-12T08:16:39.348Z,5.64
2023-01-12T08:19:15.787Z,5.64
2023-01-12T08:21:51.529Z,5.66
2023-01-12T08:24:29.951Z,5.66
2023-01-12T08:27:06.577Z,5.69
2023-01-12T08:29:44.477Z,5.69
2023-01-12T08:32:19.071Z,5.72
2023-01-12T08:34:55.229Z,5.73
2023-01-12T08:37:29.486Z,5.77
2023-01-12T08:40:01.945Z,5.80
2023-01-12T08:42:34.310Z,5.81
2023-01-12T08:45:08.151Z,5.83
2023-01-12T08:47:42.668Z,5.88
2023-01-12T08:50:14.927Z,5.92
2023-01-12T08:52:49.066Z,5.95
2023-01-12T08:55:21.217Z,5.95
2023-01-12T08:57:53.437Z,5.92
2023-01-12T09:00:26.047Z,5.93
2023-01-12T09:02:58.308Z,5.96
2023-01-12T09:05:30.401Z,5.95
2023-01-12T09:08:02.698Z,5.97
2023-01-12T09:10:34.941Z,5.91
2023-01-12T09:13:07.328Z,5.97
2023-01-12T09:15:39.730Z,5.94
2023-01-12T09:18:11.817Z,5.92
2023-01-12T09:20:44.327Z,5.90
2023-01-12T09:23:16.573Z,5.97
2023-01-12T09:25:48.807Z,5.99
2023-01-12T09:28:20.879Z,6.10
2023-01-12T09:30:54.685Z,6.18
2023-01-12T09:33:24.996Z,6.28
2023-01-12T09:36:00.909Z,6.26
2023-01-12T09:38:33.392Z,6.34
2023-01-12T09:41:13.237Z,6.40
2023-01-12T09:44:03.578Z,6.54
2023-01-12T09:46:57.021Z,6.77
2023-01-12T09:49:33.517Z,7.04
2023-01-12T09:52:13.793Z,7.23
2023-01-12T09:54:48.644Z,7.48
2023-01-12T09:57:49.842Z,7.67
2023-01-12T10:00:23.035Z,7.84
2023-01-12T10:03:08.078Z,7.96
2023-01-12T10:05:45.030Z,8.15
2023-01-12T10:08:27.769Z,8.34
2023-01-12T10:11:12.275Z,8.38
2023-01-12T10:14:13.161Z,8.36
2023-01-12T10:16:55.590Z,8.43
2023-01-12T10:19:34.256Z,8.45
2023-01-12T10:22:37.615Z,8.57
2023-01-12T10:25:19.997Z,8.62
2023-01-12T10:27:53.807Z,8.54
2023-01-12T10:30:30.694Z,8.72
2023-01-12T10:33:11.947Z,8.84
2023-01-12T10:35:54.753Z,9.02
2023-01-12T10:38:31.650Z,8.93
2023-01-12T10:41:14.260Z,9.10
2023-01-12T10:43:48.608Z,8.84
2023-01-12T10:46:24.233Z,9.11
2023-01-12T10:49:16.178Z,9.28
2023-01-12T10:51:56.483Z,9.24
2023-01-12T10:54:31.830Z,9.32
2023-01-12T10:57:07.974Z,9.37
2023-01-12T10:59:43.088Z,9.41
2023-01-12T11:02:18.091Z,9.46
2023-01-12T11:04:53.099Z,9.34
2023-01-12T11:07:29.214Z,9.44
2023-01-12T11:10:22.429Z,9.41
2023-01-12T11:12:59.685Z,9.36
2023-01-12T11:15:39.394Z,9.44
2023-01-12T11:18:36.908Z,9.56
2023-01-12T11:21:14.357Z,9.30
2023-01-12T11:23:56.691Z,9.33
2023-01-12T11:26:34.239Z,9.34
2023-01-12T11:29:24.775Z,9.31
2023-01-12T11:32:01.379Z,9.11
2023-01-12T11:34:37.860Z,9.05
2023-01-12T11:37:15.485Z,9.10
2023-01-12T11:39:49.537Z,9.15
2023-01-12T11:42:44.050Z,9.30
2023-01-12T11:45:23.252Z,9.46
2023-01-12T11:48:01.617Z,9.41
2023-01-12T11:50:39.846Z,9.46
2023-01-12T11:53:21.002Z,9.58
2023-01-12T11:56:21.199Z,9.63
2023-01-12T11:58:59.358Z,9.58
2023-01-12T12:01:39.860Z,9.63
2023-01-12T12:04:23.778Z,9.67
2023-01-12T12:07:21.006Z,9.59
2023-01-12T12:10:07.437Z,9.56
2023-01-12T12:12:48.046Z,9.40
2023-01-12T12:15:29.728Z,9.26
2023-01-12T12:18:13.546Z,9.16
2023-01-12T12:20:47.400Z,9.19
2023-01-12T12:23:32.612Z,9.15
2023-01-12T12:26:14.022Z,9.20
2023-01-12T12:29:05.367Z,9.19
2023-01-12T12:31:48.167Z,9.13
2023-01-12T12:34:44.480Z,9.11
2023-01-12T12:37:27.438Z,9.08
2023-01-12T12:40:03.811Z,9.10
2023-01-12T12:43:03.806Z,9.05
2023-01-12T12:45:45.339Z,9.12
2023-01-12T12:48:25.260Z,9.17
2023-01-12T12:51:08.077Z,9.05
2023-01-12T12:53:43.693Z,8.95
2023-01-12T12:56:18.112Z,8.83
2023-01-12T12:58:51.688Z,8.80
2023-01-12T13:01:58.698Z,8.80
2023-01-12T13:05:05.474Z,8.79
2023-01-12T13:07:53.336Z,8.74
2023-01-12T13:10:35.594Z,8.66
2023-01-12T13:13:34.420Z,8.68
2023-01-12T13:16:45.983Z,8.68
2023-01-12T13:19:39.034Z,8.66
2023-01-12T13:22:32.633Z,8.61
2023-01-12T13:25:29.851Z,8.62
2023-01-12T13:28:21.809Z,8.57
2023-01-12T13:30:55.834Z,8.49
2023-01-12T13:33:31.682Z,8.48
2023-01-12T13:36:08.688Z,8.43
2023-01-12T13:38:54.548Z,8.32
2023-01-12T13:41:47.325Z,8.36
2023-01-12T13:44:27.824Z,8.32
2023-01-12T13:47:08.967Z,8.25
2023-01-12T13:49:48.769Z,8.25
2023-01-12T13:52:40.809Z,8.20
2023-01-12T13:55:25.250Z,8.19
2023-01-12T13:58:02.609Z,8.13
2023-01-12T14:00:35.448Z,8.08
2023-01-12T14:03:12.635Z,7.98
2023-01-12T14:05:59.085Z,7.98
2023-01-12T14:09:01.359Z,7.96
2023-01-12T14:12:05.504Z,7.95
2023-01-12T14:15:22.827Z,7.90
2023-01-12T14:18:03.234Z,7.84
2023-01-12T14:20:44.579Z,7.82
2023-01-12T14:23:20.694Z,7.71
2023-01-12T14:26:14.870Z,7.70
2023-01-12T14:28:48.369Z,7.75
2023-01-12T14:31:25.491Z,7.66
2023-01-12T14:34:00.448Z,7.65
2023-01-12T14:36:36.232Z,7.66
2023-01-12T14:39:17.458Z,7.60
2023-01-12T14:42:09.810Z,7.56
2023-01-12T14:45:07.407Z,7.51
2023-01-12T14:47:40.065Z,7.50
2023-01-12T14:50:23.799Z,7.44
2023-01-12T14:52:56.037Z,7.41
2023-01-12T14:55:41.509Z,7.35
2023-01-12T14:58:24.235Z,7.30
2023-01-12T15:00:56.537Z,7.23
2023-01-12T15:03:39.366Z,7.25
2023-01-12T15:06:19.042Z,7.21
2023-01-12T15:09:00.644Z,7.20
2023-01-12T15:11:39.819Z,7.13
2023-01-12T15:14:26.574Z,7.10
2023-01-12T15:17:16.050Z,7.06
2023-01-12T15:20:05.827Z,7.08
2023-01-12T15:22:56.495Z,6.98
2023-01-12T15:25:37.837Z,6.89
2023-01-12T15:28:10.779Z,6.84
2023-01-12T15:30:43.209Z,6.78
2023-01-12T15:33:16.880Z,6.72
2023-01-12T15:35:48.052Z,6.75
2023-01-12T15:38:21.050Z,6.65
2023-01-12T15:40:53.149Z,6.64
2023-01-12T15:43:25.697Z,6.61
2023-01-12T15:45:58.198Z,6.60
2023-01-12T15:48:30.529Z,6.54
2023-01-12T15:51:02.824Z,6.52
2023-01-12T15:53:34.888Z,6.44
2023-01-12T15:56:09.779Z,6.33
2023-01-12T15:58:41.917Z,6.26
2023-01-12T16:01:19.484Z,6.17
2023-01-12T16:04:24.911Z,6.14
2023-01-12T16:06:44.323Z,6.11
2023-01-12T16:09:17.842Z,6.09
2023-01-12T16:11:50.085Z,6.07
2023-01-12T16:14:22.110Z,6.03
2023-01-12T16:16:54.398Z,6.02
2023-01-12T16:19:27.850Z,6.01
2023-01-12T16:21:59.923Z,5.99
2023-01-12T16:24:33.038Z,5.91
2023-01-12T16:27:03.810Z,5.92
2023-01-12T16:29:35.849Z,5.82
2023-01-12T16:32:08.975Z,5.84
2023-01-12T16:34:41.486Z,5.79
2023-01-12T16:37:16.356Z,5.78
2023-01-12T16:39:48.773Z,5.77
2023-01-12T16:42:21.445Z,5.75
2023-01-12T16:44:53.577Z,5.72
2023-01-12T16:47:27.888Z,5.70
2023-01-12T16:50:00.452Z,5.70
2023-01-12T16:52:32.766Z,5.67
2023-01-12T16:55:06.060Z,5.65
2023-01-12T16:57:39.357Z,5.65
2023-01-12T17:00:13.891Z,5.65
2023-01-12T17:02:48.156Z,5.59
2023-01-12T17:05:23.246Z,5.52
2023-01-12T17:07:55.956Z,5.47
2023-01-12T17:10:28.409Z,5.51
2023-01-12T17:13:00.822Z,5.45
2023-01-12T17:15:32.603Z,5.42
2023-01-12T17:18:05.706Z,5.38
2023-01-12T17:20:38.055Z,5.41
2023-01-12T17:23:10.589Z,5.43
2023-01-12T17:25:42.810Z,5.37
2023-01-12T17:28:15.006Z,5.43
2023-01-12T17:30:47.383Z,5.44
2023-01-12T17:33:20.758Z,5.43
2023-01-12T17:35:55.696Z,5.38
2023-01-12T17:38:27.838Z,5.37
2023-01-12T17:40:59.904Z,5.38
2023-01-12T17:43:32.130Z,5.32
2023-01-12T17:46:04.755Z,5.30
2023-01-12T17:48:37.314Z,5.30
2023-01-12T17:51:14.233Z,5.30
2023-01-12T17:53:46.576Z,5.28
2023-01-12T17:56:20.089Z,5.25
2023-01-12T17:58:55.525Z,5.25
2023-01-12T18:01:29.907Z,5.19
2023-01-12T18:04:03.496Z,5.08
2023-01-12T18:06:36.435Z,5.03
2023-01-12T18:09:09.853Z,5.01
2023-01-12T18:11:44.129Z,4.95
2023-01-12T18:14:21.165Z,4.92
2023-01-12T18:16:53.544Z,4.90
2023-01-12T18:19:25.947Z,4.84
2023-01-12T18:21:58.201Z,4.83
2023-01-12T18:24:34.321Z,4.84
2023-01-12T18:27:08.497Z,4.86
2023-01-12T18:29:41.516Z,4.84
2023-01-12T18:32:14.137Z,4.86
2023-01-12T18:34:47.356Z,4.90
2023-01-12T18:37:18.073Z,4.90
2023-01-12T18:39:52.258Z,4.85
2023-01-12T18:42:42.191Z,4.87
2023-01-12T18:45:17.949Z,4.85
2023-01-12T18:48:09.019Z,4.82
2023-01-12T18:50:59.545Z,4.85
2023-01-12T18:53:33.146Z,4.85
2023-01-12T18:56:09.259Z,4.86
2023-01-12T18:58:43.864Z,4.87
2023-01-12T19:01:22.422Z,4.81
2023-01-12T19:03:56.103Z,4.81
2023-01-12T19:06:43.650Z,4.80
2023-01-12T19:09:34.088Z,4.79
2023-01-12T19:12:11.188Z,4.75
2023-01-12T19:15:02.620Z,4.76
2023-01-12T19:17:37.096Z,4.71
2023-01-12T19:20:17.629Z,4.72
2023-01-12T19:23:07.095Z,4.71
2023-01-12T19:26:10.317Z,4.66
2023-01-12T19:28:43.230Z,4.59
2023-01-12T19:31:17.763Z,4.58
2023-01-12T19:33:50.522Z,4.53
2023-01-12T19:36:22.957Z,4.53
2023-01-12T19:38:58.892Z,4.49
2023-01-12T19:41:48.888Z,4.50
2023-01-12T19:44:21.140Z,4.48
2023-01-12T19:46:53.357Z,4.42
2023-01-12T19:49:27.612Z,4.41
2023-01-12T19:51:59.912Z,4.40
2023-01-12T19:54:32.329Z,4.39
2023-01-12T19:57:05.217Z,4.35
2023-01-12T19:59:37.899Z,4.30
2023-01-12T20:02:11.074Z,4.33
2023-01-12T20:04:43.691Z,4.31
2023-01-12T20:07:21.898Z,4.31
2023-01-12T20:10:00.114Z,4.30
2023-01-12T20:12:32.552Z,4.28
2023-01-12T20:15:18.454Z,4.23
2023-01-12T20:17:54.857Z,4.20
2023-01-12T20:20:39.983Z,4.23
2023-01-12T20:23:19.887Z,4.17
2023-01-12T20:26:02.527Z,4.16
2023-01-12T20:28:42.115Z,4.15
2023-01-12T20:31:21.101Z,4.15
2023-01-12T20:33:54.540Z,4.10
2023-01-12T20:36:30.008Z,4.08
2023-01-12T20:39:07.148Z,4.07
2023-01-12T20:41:47.158Z,4.09
2023-01-12T20:44:24.956Z,4.10
2023-01-12T20:47:04.221Z,4.03
2023-01-12T20:49:43.435Z,3.99
2023-01-12T20:52:18.613Z,3.92
2023-01-12T20:54:54.943Z,3.91
2023-01-12T20:57:31.033Z,3.88
2023-01-12T21:00:06.615Z,3.85
2023-01-12T21:02:42.872Z,3.85
2023-01-12T21:05:19.639Z,3.84
2023-01-12T21:08:07.452Z,3.77
2023-01-12T21:10:50.436Z,3.72
2023-01-12T21:13:25.250Z,3.74
2023-01-12T21:16:06.308Z,3.78
2023-01-12T21:18:43.447Z,3.70
2023-01-12T21:21:18.967Z,3.62
2023-01-12T21:23:54.532Z,3.63
2023-01-12T21:26:31.690Z,3.66
2023-01-12T21:29:03.935Z,3.69
2023-01-12T21:31:36.449Z,3.75
2023-01-12T21:34:08.894Z,3.79
2023-01-12T21:36:41.271Z,3.82
2023-01-12T21:39:13.771Z,3.84
2023-01-12T21:42:03.040Z,3.82
2023-01-12T21:44:35.842Z,3.84
2023-01-12T21:47:08.068Z,3.84
2023-01-12T21:49:40.209Z,3.81
2023-01-12T21:52:12.429Z,3.84
2023-01-12T21:54:45.037Z,3.81
2023-01-12T21:57:19.026Z,3.79
2023-01-12T21:59:51.443Z,3.83
2023-01-12T22:02:24.049Z,3.90
2023-01-12T22:04:56.617Z,3.89
2023-01-12T22:07:30.858Z,3.92
2023-01-12T22:10:16.798Z,3.92
2023-01-12T22:12:54.429Z,3.87
2023-01-12T22:15:28.224Z,3.86
2023-01-12T22:17:58.567Z,3.88
2023-01-12T22:20:31.037Z,3.85
2023-01-12T22:23:03.234Z,3.89
2023-01-12T22:25:38.258Z,3.88
2023-01-12T22:28:11.878Z,3.88
2023-01-12T22:30:45.167Z,3.94
2023-01-12T22:33:17.696Z,3.90
2023-01-12T22:35:50.096Z,3.90
2023-01-12T22:38:22.037Z,3.89
2023-01-12T22:40:54.279Z,3.90
2023-01-12T22:43:29.747Z,3.92
2023-01-12T22:46:02.306Z,3.87
2023-01-12T22:48:34.439Z,3.89
2023-01-12T22:51:07.235Z,3.91
2023-01-12T22:53:39.399Z,3.91
2023-01-12T22:56:13.545Z,3.87
2023-01-12T22:58:49.760Z,3.84
2023-01-12T23:01:23.172Z,3.84
2023-01-12T23:04:00.351Z,3.81
2023-01-12T23:06:33.240Z,3.78
2023-01-12T23:09:09.266Z,3.81
2023-01-12T23:11:48.051Z,3.79
2023-01-12T23:14:23.997Z,3.80
2023-01-12T23:16:59.155Z,3.79
2023-01-12T23:19:35.727Z,3.80
2023-01-12T23:22:11.570Z,3.83
2023-01-12T23:24:47.910Z,3.85
2023-01-12T23:27:22.974Z,3.88
2023-01-12T23:29:55.816Z,3.85
2023-01-12T23:32:30.709Z,3.87
2023-01-12T23:35:02.760Z,3.87
2023-01-12T23:37:34.867Z,3.88
2023-01-12T23:40:08.346Z,3.89
2023-01-12T23:42:41.026Z,3.92
2023-01-12T23:45:15.859Z,3.92
2023-01-12T23:47:48.435Z,3.92
2023-01-12T23:50:21.328Z,3.93
2023-01-12T23:52:53.985Z,3.94
2023-01-12T23:55:27.513Z,3.90
2023-01-12T23:57:59.767Z,3.86
